createdAt,value
2017-07-09T00:00:47.428Z,16.09
2017-07-09T00:01:59.759Z,16.03
2017-07-09T00:03:12.082Z,15.98
2017-07-09T00:04:24.625Z,16.03
2017-07-09T00:05:37.257Z,16.06
2017-07-09T00:06:49.192Z,16.05
2017-07-09T00:08:01.754Z,16.05
2017-07-09T00:09:13.701Z,16
2017-07-09T00:10:25.671Z,16.02
2017-07-09T00:11:37.952Z,15.94
2017-07-09T00:12:50.545Z,16
2017-07-09T00:14:03.067Z,15.9
2017-07-09T00:15:15.686Z,15.98
2017-07-09T00:16:27.601Z,15.92
2017-07-09T00:17:39.872Z,15.91
2017-07-09T00:18:51.825Z,15.98
2017-07-09T00:20:04.103Z,15.94
2017-07-09T00:21:16.741Z,15.94
2017-07-09T00:22:28.449Z,15.92
2017-07-09T00:23:40.441Z,15.99
2017-07-09T00:24:52.961Z,15.85
2017-07-09T00:26:04.913Z,15.83
2017-07-09T00:27:17.189Z,15.9
2017-07-09T00:28:29.743Z,15.87
2017-07-09T00:29:42.322Z,15.83
2017-07-09T00:30:54.318Z,15.84
2017-07-09T00:32:06.923Z,15.83
2017-07-09T00:33:18.889Z,15.83
2017-07-09T00:34:31.484Z,15.78
2017-07-09T00:35:43.786Z,15.73
2017-07-09T00:36:56.342Z,15.7
2017-07-09T00:38:08.320Z,15.65
2017-07-09T00:39:20.619Z,15.73
2017-07-09T00:40:32.907Z,15.7
2017-07-09T00:41:45.191Z,15.69
2017-07-09T00:42:57.108Z,15.72
2017-07-09T00:44:09.349Z,15.69
2017-07-09T00:45:21.378Z,15.69
2017-07-09T00:46:33.649Z,15.69
2017-07-09T00:47:46.202Z,15.7
2017-07-09T00:48:58.802Z,15.67
2017-07-09T00:50:11.037Z,15.72
2017-07-09T00:51:23.301Z,15.69
2017-07-09T00:52:35.561Z,15.72
2017-07-09T00:53:47.507Z,15.67
2017-07-09T00:55:00.102Z,15.67
2017-07-09T00:56:12.341Z,15.69
2017-07-09T00:57:24.269Z,15.59
2017-07-09T00:58:36.870Z,15.63
2017-07-09T00:59:48.787Z,15.62
2017-07-09T01:01:01.357Z,15.59
2017-07-09T01:02:13.946Z,15.65
2017-07-09T01:03:26.587Z,15.63
2017-07-09T01:04:39.465Z,15.59
2017-07-09T01:05:52.044Z,15.57
2017-07-09T01:07:04.022Z,15.57
2017-07-09T01:08:16.282Z,15.54
2017-07-09T01:09:27.960Z,15.63
2017-07-09T01:10:40.526Z,15.62
2017-07-09T01:11:53.129Z,15.59
2017-07-09T01:13:05.371Z,15.57
2017-07-09T01:14:17.919Z,15.51
2017-07-09T01:15:30.559Z,15.55
2017-07-09T01:16:43.192Z,15.48
2017-07-09T01:17:55.787Z,15.51
2017-07-09T01:19:07.777Z,15.5
2017-07-09T01:20:20.317Z,15.51
2017-07-09T01:21:32.620Z,15.48
2017-07-09T01:22:44.852Z,15.45
2017-07-09T01:23:56.806Z,15.43
2017-07-09T01:25:09.068Z,15.44
2017-07-09T01:26:21.640Z,15.43
2017-07-09T01:27:33.910Z,15.44
2017-07-09T01:28:46.192Z,15.35
2017-07-09T01:29:58.484Z,15.39
2017-07-09T01:31:11.042Z,15.41
2017-07-09T01:32:23.650Z,15.41
2017-07-09T01:33:35.989Z,15.39
2017-07-09T01:34:48.625Z,15.37
2017-07-09T01:36:01.265Z,15.36
2017-07-09T01:37:13.496Z,15.3
2017-07-09T01:38:25.807Z,15.36
2017-07-09T01:39:37.751Z,15.33
2017-07-09T01:40:49.677Z,15.37
2017-07-09T01:42:02.495Z,15.3
2017-07-09T01:43:15.044Z,15.3
2017-07-09T01:44:27.642Z,15.33
2017-07-09T01:45:39.907Z,15.23
2017-07-09T01:46:52.153Z,15.27
2017-07-09T01:48:04.141Z,15.33
2017-07-09T01:49:16.458Z,15.33
2017-07-09T01:50:29.096Z,15.33
2017-07-09T01:51:41.704Z,15.32
2017-07-09T01:52:54.284Z,15.29
2017-07-09T01:54:06.253Z,15.26
2017-07-09T01:55:18.818Z,15.18
2017-07-09T01:56:31.045Z,15.22
2017-07-09T01:57:43.309Z,15.23
2017-07-09T01:58:55.594Z,15.26
2017-07-09T02:00:07.574Z,15.19
2017-07-09T02:01:20.208Z,15.19
2017-07-09T02:02:32.474Z,15.12
2017-07-09T02:03:44.703Z,15.05
2017-07-09T02:04:56.969Z,15.08
2017-07-09T02:06:09.179Z,15.08
2017-07-09T02:07:21.440Z,15.02
2017-07-09T02:08:33.999Z,15.04
2017-07-09T02:09:46.605Z,15.11
2017-07-09T02:10:58.894Z,15.11
2017-07-09T02:12:10.542Z,15.02
2017-07-09T02:13:22.797Z,14.99
2017-07-09T02:14:35.409Z,15
2017-07-09T02:15:47.636Z,15.05
2017-07-09T02:17:00.256Z,15.04
2017-07-09T02:18:12.559Z,15.04
2017-07-09T02:19:25.130Z,15.02
2017-07-09T02:20:37.063Z,14.97
2017-07-09T02:21:49.041Z,14.92
2017-07-09T02:23:01.251Z,14.94
2017-07-09T02:24:12.553Z,14.93
2017-07-09T02:25:24.841Z,14.93
2017-07-09T02:26:37.130Z,14.92
2017-07-09T02:27:49.741Z,14.9
2017-07-09T02:29:02.310Z,14.89
2017-07-09T02:30:14.563Z,14.9
2017-07-09T02:31:26.838Z,14.78
2017-07-09T02:32:39.105Z,14.74
2017-07-09T02:33:51.394Z,14.79
2017-07-09T02:35:03.965Z,14.77
2017-07-09T02:36:16.510Z,14.68
2017-07-09T02:37:28.418Z,14.77
2017-07-09T02:38:40.952Z,14.71
2017-07-09T02:39:53.235Z,14.67
2017-07-09T02:41:05.562Z,14.66
2017-07-09T02:42:17.841Z,14.59
2017-07-09T02:43:30.145Z,14.61
2017-07-09T02:44:42.700Z,14.53
2017-07-09T02:45:54.954Z,14.56
2017-07-09T02:47:06.899Z,14.49
2017-07-09T02:48:19.157Z,14.56
2017-07-09T02:49:31.468Z,14.59
2017-07-09T02:50:44.073Z,14.61
2017-07-09T02:51:56.671Z,14.53
2017-07-09T02:53:09.295Z,14.38
2017-07-09T02:54:21.871Z,14.52
2017-07-09T02:55:34.147Z,14.45
2017-07-09T02:56:46.777Z,14.43
2017-07-09T02:57:59.113Z,14.44
2017-07-09T02:59:11.387Z,14.43
2017-07-09T03:00:23.922Z,14.37
2017-07-09T03:01:36.479Z,14.37
2017-07-09T03:02:49.114Z,14.37
2017-07-09T03:04:01.340Z,14.3
2017-07-09T03:05:13.005Z,14.22
2017-07-09T03:06:25.019Z,14.26
2017-07-09T03:07:37.255Z,14.22
2017-07-09T03:08:49.829Z,14.22
2017-07-09T03:10:02.080Z,14.2
2017-07-09T03:11:14.702Z,14.16
2017-07-09T03:12:26.967Z,14.22
2017-07-09T03:13:39.570Z,14.2
2017-07-09T03:14:52.384Z,14.15
2017-07-09T03:16:04.679Z,14.04
2017-07-09T03:17:17.209Z,14.05
2017-07-09T03:18:29.199Z,14.03
2017-07-09T03:19:41.243Z,14.07
2017-07-09T03:20:53.817Z,14.04
2017-07-09T03:22:05.814Z,14.07
2017-07-09T03:23:17.475Z,13.98
2017-07-09T03:24:29.172Z,13.93
2017-07-09T03:25:42.046Z,13.97
2017-07-09T03:26:54.334Z,13.98
2017-07-09T03:28:06.562Z,13.95
2017-07-09T03:29:19.209Z,13.95
2017-07-09T03:30:31.758Z,13.93
2017-07-09T03:31:43.666Z,14
2017-07-09T03:32:56.261Z,13.98
2017-07-09T03:34:08.219Z,13.97
2017-07-09T03:35:20.411Z,13.95
2017-07-09T03:36:32.658Z,13.93
2017-07-09T03:37:45.256Z,13.91
2017-07-09T03:38:57.880Z,13.91
2017-07-09T03:40:10.148Z,13.95
2017-07-09T03:41:22.385Z,13.98
2017-07-09T03:42:34.889Z,13.97
2017-07-09T03:43:47.210Z,13.94
2017-07-09T03:44:59.226Z,13.98
2017-07-09T03:46:11.516Z,13.98
2017-07-09T03:47:23.795Z,13.98
2017-07-09T03:48:36.377Z,13.97
2017-07-09T03:49:48.638Z,13.98
2017-07-09T03:51:01.177Z,14
2017-07-09T03:52:14.006Z,14.01
2017-07-09T03:53:26.228Z,13.95
2017-07-09T03:54:38.463Z,14.01
2017-07-09T03:55:50.410Z,14.04
2017-07-09T03:57:02.719Z,14.07
2017-07-09T03:58:14.963Z,14.05
2017-07-09T03:59:27.211Z,14.08
2017-07-09T04:00:39.202Z,14.12
2017-07-09T04:01:51.432Z,14.12
2017-07-09T04:03:03.715Z,14.04
2017-07-09T04:04:16.050Z,14.15
2017-07-09T04:05:28.366Z,14.13
2017-07-09T04:06:40.930Z,14.13
2017-07-09T04:07:53.226Z,14.18
2017-07-09T04:09:04.538Z,14.22
2017-07-09T04:10:16.820Z,14.2
2017-07-09T04:11:29.443Z,14.2
2017-07-09T04:12:42.035Z,14.2
2017-07-09T04:13:54.639Z,14.23
2017-07-09T04:15:07.231Z,14.19
2017-07-09T04:16:19.849Z,14.22
2017-07-09T04:17:31.769Z,14.19
2017-07-09T04:18:43.720Z,14.31
2017-07-09T04:19:56.285Z,14.3
2017-07-09T04:21:08.910Z,14.31
2017-07-09T04:22:21.181Z,14.36
2017-07-09T04:23:33.072Z,14.33
2017-07-09T04:24:45.019Z,14.4
2017-07-09T04:25:57.325Z,14.49
2017-07-09T04:27:09.623Z,14.43
2017-07-09T04:28:21.907Z,14.52
2017-07-09T04:29:34.536Z,14.56
2017-07-09T04:30:46.824Z,14.51
2017-07-09T04:31:59.378Z,14.52
2017-07-09T04:33:11.966Z,14.56
2017-07-09T04:34:24.562Z,14.52
2017-07-09T04:35:37.125Z,14.56
2017-07-09T04:36:49.705Z,14.56
2017-07-09T04:38:01.709Z,14.49
2017-07-09T04:39:14.324Z,14.51
2017-07-09T04:40:26.946Z,14.48
2017-07-09T04:41:38.567Z,14.58
2017-07-09T04:42:51.132Z,14.66
2017-07-09T04:44:03.402Z,14.63
2017-07-09T04:45:15.362Z,14.63
2017-07-09T04:46:27.670Z,14.71
2017-07-09T04:47:40.242Z,14.66
2017-07-09T04:48:52.817Z,14.63
2017-07-09T04:50:05.486Z,14.67
2017-07-09T04:51:17.791Z,14.63
2017-07-09T04:52:30.367Z,14.74
2017-07-09T04:53:42.695Z,14.73
2017-07-09T04:54:55.319Z,14.79
2017-07-09T04:56:07.589Z,14.79
2017-07-09T04:57:19.858Z,14.81
2017-07-09T04:58:31.856Z,14.81
2017-07-09T04:59:44.444Z,14.9
2017-07-09T05:00:57.025Z,14.9
2017-07-09T05:02:09.318Z,14.93
2017-07-09T05:03:21.824Z,14.93
2017-07-09T05:04:34.402Z,14.94
2017-07-09T05:05:46.956Z,14.96
2017-07-09T05:06:59.279Z,14.93
2017-07-09T05:08:11.826Z,14.97
2017-07-09T05:09:24.084Z,14.96
2017-07-09T05:10:36.700Z,14.97
2017-07-09T05:11:49.278Z,15.04
2017-07-09T05:13:01.879Z,15.04
2017-07-09T05:14:14.180Z,15
2017-07-09T05:15:26.448Z,15.02
2017-07-09T05:16:38.997Z,15.11
2017-07-09T05:17:51.540Z,15.08
2017-07-09T05:19:04.210Z,15.15
2017-07-09T05:20:16.816Z,15.1
2017-07-09T05:21:29.059Z,15.17
2017-07-09T05:22:41.359Z,15.23
2017-07-09T05:23:53.642Z,15.26
2017-07-09T05:25:05.626Z,15.27
2017-07-09T05:26:18.311Z,15.29
2017-07-09T05:27:30.557Z,15.36
2017-07-09T05:28:42.763Z,15.37
2017-07-09T05:29:55.705Z,15.48
2017-07-09T05:31:08.019Z,15.55
2017-07-09T05:32:20.639Z,15.66
2017-07-09T05:33:33.161Z,15.78
2017-07-09T05:34:45.407Z,16.02
2017-07-09T05:35:57.971Z,16.17
2017-07-09T05:37:10.205Z,16.34
2017-07-09T05:38:22.768Z,16.46
2017-07-09T05:39:34.715Z,16.62
2017-07-09T05:40:46.979Z,16.62
2017-07-09T05:41:59.191Z,16.74
2017-07-09T05:43:11.782Z,16.74
2017-07-09T05:44:24.377Z,16.73
2017-07-09T05:45:37.007Z,16.82
2017-07-09T05:46:49.566Z,16.74
2017-07-09T05:48:01.824Z,16.74
2017-07-09T05:49:14.099Z,16.82
2017-07-09T05:50:26.412Z,16.72
2017-07-09T05:51:38.942Z,16.89
2017-07-09T05:52:51.213Z,16.87
2017-07-09T05:54:03.556Z,16.83
2017-07-09T05:55:15.468Z,16.89
2017-07-09T05:56:27.791Z,16.91
2017-07-09T05:57:40.380Z,16.91
2017-07-09T05:58:52.950Z,16.91
2017-07-09T06:00:05.174Z,16.91
2017-07-09T06:01:17.468Z,16.91
2017-07-09T06:02:29.988Z,16.92
2017-07-09T06:03:42.634Z,16.89
2017-07-09T06:04:54.930Z,17.05
2017-07-09T06:06:06.924Z,16.97
2017-07-09T06:07:19.489Z,16.94
2017-07-09T06:08:31.774Z,17.04
2017-07-09T06:09:44.378Z,17.02
2017-07-09T06:10:57.012Z,16.92
2017-07-09T06:12:09.246Z,17.02
2017-07-09T06:13:21.544Z,16.95
2017-07-09T06:14:33.806Z,17.01
2017-07-09T06:15:46.101Z,17.07
2017-07-09T06:16:58.414Z,17.12
2017-07-09T06:18:10.702Z,17.14
2017-07-09T06:19:23.292Z,17.22
2017-07-09T06:20:35.328Z,17.31
2017-07-09T06:21:47.961Z,17.42
2017-07-09T06:22:59.949Z,17.56
2017-07-09T06:24:11.276Z,17.59
2017-07-09T06:25:23.910Z,17.66
2017-07-09T06:26:35.861Z,17.76
2017-07-09T06:27:47.533Z,17.84
2017-07-09T06:29:00.115Z,17.94
2017-07-09T06:30:12.669Z,18.15
2017-07-09T06:31:25.290Z,18.36
2017-07-09T06:32:37.228Z,18.51
2017-07-09T06:33:49.818Z,18.7
2017-07-09T06:35:01.814Z,18.81
2017-07-09T06:36:14.427Z,18.96
2017-07-09T06:37:26.645Z,19.09
2017-07-09T06:38:38.608Z,19.2
2017-07-09T06:39:51.140Z,19.27
2017-07-09T06:41:03.799Z,19.42
2017-07-09T06:42:16.146Z,19.48
2017-07-09T06:43:28.424Z,19.62
2017-07-09T06:44:40.412Z,19.81
2017-07-09T06:45:52.921Z,20.04
2017-07-09T06:47:04.638Z,20.3
2017-07-09T06:48:17.000Z,20.67
2017-07-09T06:49:29.604Z,21.08
2017-07-09T06:50:41.827Z,21.15
2017-07-09T06:51:54.082Z,21.23
2017-07-09T06:53:06.342Z,21.35
2017-07-09T06:54:18.589Z,21.43
2017-07-09T06:55:31.191Z,21.41
2017-07-09T06:56:43.485Z,21.5
2017-07-09T06:57:56.167Z,21.5
2017-07-09T06:59:08.795Z,21.44
2017-07-09T07:00:21.418Z,21.5
2017-07-09T07:01:33.979Z,21.45
2017-07-09T07:02:46.269Z,21.45
2017-07-09T07:03:58.873Z,21.45
2017-07-09T07:05:11.492Z,21.69
2017-07-09T07:06:23.438Z,21.84
2017-07-09T07:07:35.091Z,21.96
2017-07-09T07:08:46.776Z,22.15
2017-07-09T07:09:58.735Z,22.3
2017-07-09T07:11:11.372Z,22.59
2017-07-09T07:12:23.643Z,22.92
2017-07-09T07:13:35.671Z,23.02
2017-07-09T07:14:47.911Z,23.33
2017-07-09T07:16:00.470Z,23.54
2017-07-09T07:17:12.095Z,23.71
2017-07-09T07:18:24.392Z,23.91
2017-07-09T07:19:37.049Z,24.21
2017-07-09T07:20:49.315Z,24.44
2017-07-09T07:22:01.625Z,24.75
2017-07-09T07:23:12.990Z,24.84
2017-07-09T07:24:24.342Z,24.88
2017-07-09T07:25:36.598Z,24.93
2017-07-09T07:26:48.919Z,24.69
2017-07-09T07:28:01.241Z,24.68
2017-07-09T07:29:13.294Z,24.51
2017-07-09T07:30:25.837Z,24.59
2017-07-09T07:31:37.814Z,24.56
2017-07-09T07:32:50.092Z,24.62
2017-07-09T07:34:02.445Z,24.62
2017-07-09T07:35:14.409Z,24.77
2017-07-09T07:36:26.696Z,25
2017-07-09T07:37:38.918Z,25.03
2017-07-09T07:38:50.868Z,25.16
2017-07-09T07:40:03.685Z,25.21
2017-07-09T07:41:15.995Z,25.29
2017-07-09T07:42:27.355Z,25.33
2017-07-09T07:43:39.698Z,25.46
2017-07-09T07:44:52.283Z,25.46
2017-07-09T07:46:04.867Z,25.49
2017-07-09T07:47:16.861Z,25.4
2017-07-09T07:48:28.801Z,25.4
2017-07-09T07:49:41.428Z,25.48
2017-07-09T07:50:53.994Z,25.4
2017-07-09T07:52:06.593Z,25.41
2017-07-09T07:53:19.171Z,25.4
2017-07-09T07:54:31.183Z,25.33
2017-07-09T07:55:43.765Z,25.33
2017-07-09T07:56:56.044Z,25.29
2017-07-09T07:58:08.601Z,25.31
2017-07-09T07:59:20.978Z,25.41
2017-07-09T08:00:32.973Z,25.4
2017-07-09T08:01:45.276Z,25.4
2017-07-09T08:02:57.505Z,25.41
2017-07-09T08:04:09.778Z,25.43
2017-07-09T08:05:22.072Z,25.43
2017-07-09T08:06:34.348Z,25.41
2017-07-09T08:07:46.049Z,25.31
2017-07-09T08:08:58.610Z,25.18
2017-07-09T08:10:10.906Z,24.96
2017-07-09T08:11:22.567Z,24.94
2017-07-09T08:12:35.097Z,24.84
2017-07-09T08:13:47.718Z,24.86
2017-07-09T08:15:00.099Z,24.75
2017-07-09T08:16:12.392Z,24.74
2017-07-09T08:17:24.657Z,24.58
2017-07-09T08:18:36.921Z,24.58
2017-07-09T08:19:49.300Z,24.44
2017-07-09T08:21:01.593Z,24.21
2017-07-09T08:22:13.863Z,24.13
2017-07-09T08:23:26.121Z,23.94
2017-07-09T08:24:38.681Z,23.95
2017-07-09T08:25:51.216Z,23.82
2017-07-09T08:27:03.779Z,23.66
2017-07-09T08:28:16.061Z,23.44
2017-07-09T08:29:28.295Z,23.33
2017-07-09T08:30:40.218Z,23.33
2017-07-09T08:31:52.805Z,23.18
2017-07-09T08:33:05.150Z,23.06
2017-07-09T08:34:16.798Z,22.99
2017-07-09T08:35:29.355Z,22.91
2017-07-09T08:36:41.995Z,22.83
2017-07-09T08:37:54.598Z,22.67
2017-07-09T08:39:06.908Z,22.55
2017-07-09T08:40:19.481Z,22.61
2017-07-09T08:41:32.008Z,22.46
2017-07-09T08:42:44.313Z,22.38
2017-07-09T08:43:56.919Z,22.4
2017-07-09T08:45:09.739Z,22.33
2017-07-09T08:46:22.029Z,22.31
2017-07-09T08:47:34.604Z,22.31
2017-07-09T08:48:46.517Z,22.28
2017-07-09T08:49:59.048Z,22.31
2017-07-09T08:51:10.683Z,22.3
2017-07-09T08:52:22.641Z,22.22
2017-07-09T08:53:35.234Z,22.22
2017-07-09T08:54:47.757Z,22.26
2017-07-09T08:56:00.369Z,22.19
2017-07-09T08:57:12.682Z,22.22
2017-07-09T08:58:24.951Z,22.19
2017-07-09T08:59:37.216Z,22.07
2017-07-09T09:00:49.212Z,22.08
2017-07-09T09:02:01.782Z,22.04
2017-07-09T09:03:14.019Z,22.1
2017-07-09T09:04:25.936Z,22
2017-07-09T09:05:38.192Z,21.99
2017-07-09T09:06:50.726Z,21.92
2017-07-09T09:08:03.011Z,22.01
2017-07-09T09:09:15.279Z,21.96
2017-07-09T09:10:27.574Z,21.89
2017-07-09T09:11:40.205Z,21.85
2017-07-09T09:12:52.505Z,21.85
2017-07-09T09:14:04.781Z,21.85
2017-07-09T09:15:17.090Z,21.99
2017-07-09T09:16:29.631Z,21.94
2017-07-09T09:17:42.215Z,22.03
2017-07-09T09:18:54.885Z,21.94
2017-07-09T09:20:07.136Z,21.97
2017-07-09T09:21:19.739Z,22.06
2017-07-09T09:22:31.453Z,22.04
2017-07-09T09:23:42.757Z,22.08
2017-07-09T09:24:55.077Z,22.07
2017-07-09T09:26:07.096Z,22.15
2017-07-09T09:27:19.606Z,22.1
2017-07-09T09:28:31.869Z,22.26
2017-07-09T09:29:44.474Z,22.33
2017-07-09T09:30:57.050Z,22.36
2017-07-09T09:32:09.359Z,22.28
2017-07-09T09:33:21.991Z,22.36
2017-07-09T09:34:34.294Z,22.44
2017-07-09T09:35:46.865Z,22.47
2017-07-09T09:36:59.440Z,22.56
2017-07-09T09:38:12.039Z,22.63
2017-07-09T09:39:24.870Z,22.55
2017-07-09T09:40:36.524Z,22.63
2017-07-09T09:41:48.788Z,22.67
2017-07-09T09:43:01.345Z,22.7
2017-07-09T09:44:13.338Z,22.77
2017-07-09T09:45:25.959Z,22.76
2017-07-09T09:46:37.929Z,22.84
2017-07-09T09:47:49.898Z,22.89
2017-07-09T09:49:02.450Z,22.92
2017-07-09T09:50:13.518Z,22.91
2017-07-09T09:51:26.018Z,22.93
2017-07-09T09:52:37.986Z,22.99
2017-07-09T09:53:50.283Z,22.96
2017-07-09T09:55:02.517Z,23.04
2017-07-09T09:56:14.203Z,23.07
2017-07-09T09:57:26.460Z,23.16
2017-07-09T09:58:39.056Z,23.17
2017-07-09T09:59:51.384Z,23.23
2017-07-09T10:01:03.642Z,23.26
2017-07-09T10:02:15.650Z,23.42
2017-07-09T10:03:27.947Z,23.4
2017-07-09T10:04:40.477Z,23.54
2017-07-09T10:05:52.756Z,23.67
2017-07-09T10:07:04.738Z,23.63
2017-07-09T10:08:17.142Z,23.82
2017-07-09T10:09:29.393Z,23.95
2017-07-09T10:10:41.399Z,23.96
2017-07-09T10:11:53.971Z,24.07
2017-07-09T10:13:06.241Z,24.11
2017-07-09T10:14:18.449Z,24.14
2017-07-09T10:15:30.414Z,24.25
2017-07-09T10:16:42.730Z,24.34
2017-07-09T10:17:55.351Z,24.47
2017-07-09T10:19:07.047Z,24.56
2017-07-09T10:20:19.599Z,24.56
2017-07-09T10:21:31.848Z,24.63
2017-07-09T10:22:44.132Z,24.71
2017-07-09T10:23:55.803Z,24.71
2017-07-09T10:25:07.751Z,24.81
2017-07-09T10:26:20.018Z,24.96
2017-07-09T10:27:31.986Z,24.99
2017-07-09T10:28:44.310Z,25.12
2017-07-09T10:29:56.875Z,25.15
2017-07-09T10:31:08.237Z,25.19
2017-07-09T10:32:20.861Z,25.26
2017-07-09T10:33:33.429Z,25.29
2017-07-09T10:34:45.717Z,25.43
2017-07-09T10:35:57.691Z,25.41
2017-07-09T10:37:09.708Z,25.39
2017-07-09T10:38:22.291Z,25.55
2017-07-09T10:39:34.580Z,25.59
2017-07-09T10:40:47.183Z,25.62
2017-07-09T10:41:59.774Z,25.61
2017-07-09T10:43:12.065Z,25.63
2017-07-09T10:44:23.735Z,25.7
2017-07-09T10:45:35.667Z,25.77
2017-07-09T10:46:47.952Z,25.73
2017-07-09T10:48:00.551Z,25.83
2017-07-09T10:49:13.174Z,25.66
2017-07-09T10:50:25.464Z,25.56
2017-07-09T10:51:38.033Z,25.54
2017-07-09T10:52:50.006Z,25.58
2017-07-09T10:54:01.332Z,25.71
2017-07-09T10:55:12.390Z,25.77
2017-07-09T10:56:24.618Z,25.86
2017-07-09T10:57:37.242Z,25.86
2017-07-09T10:58:49.510Z,25.95
2017-07-09T11:00:01.830Z,25.96
2017-07-09T11:01:13.505Z,26.08
2017-07-09T11:02:25.782Z,26.13
2017-07-09T11:03:38.056Z,26.19
2017-07-09T11:04:50.640Z,26.27
2017-07-09T11:06:03.160Z,26.29
2017-07-09T11:07:15.159Z,26.37
2017-07-09T11:08:27.789Z,26.49
2017-07-09T11:09:39.775Z,26.59
2017-07-09T11:10:52.431Z,26.67
2017-07-09T11:12:04.714Z,26.79
2017-07-09T11:13:17.048Z,26.93
2017-07-09T11:14:29.037Z,27.08
2017-07-09T11:15:41.582Z,27.22
2017-07-09T11:16:53.824Z,27.38
2017-07-09T11:18:05.470Z,27.68
2017-07-09T11:19:17.766Z,27.9
2017-07-09T11:20:29.444Z,28.22
2017-07-09T11:21:42.111Z,28.52
2017-07-09T11:22:54.938Z,28.74
2017-07-09T11:24:06.900Z,29
2017-07-09T11:25:19.505Z,29.22
2017-07-09T11:26:31.748Z,29.37
2017-07-09T11:27:44.338Z,29.53
2017-07-09T11:28:56.901Z,29.77
2017-07-09T11:30:09.148Z,29.98
2017-07-09T11:31:21.111Z,30.2
2017-07-09T11:32:33.724Z,30.46
2017-07-09T11:33:46.310Z,30.8
2017-07-09T11:34:58.563Z,31.02
2017-07-09T11:36:10.575Z,31.18
2017-07-09T11:37:23.197Z,31.44
2017-07-09T11:38:35.479Z,31.59
2017-07-09T11:39:47.458Z,31.87
2017-07-09T11:40:59.442Z,31.98
2017-07-09T11:42:11.745Z,32.26
2017-07-09T11:43:24.003Z,32.45
2017-07-09T11:44:36.581Z,32.66
2017-07-09T11:45:48.263Z,32.75
2017-07-09T11:47:00.858Z,32.91
2017-07-09T11:48:12.880Z,33.15
2017-07-09T11:49:25.519Z,33.28
2017-07-09T11:50:37.738Z,33.4
2017-07-09T11:51:50.380Z,33.57
2017-07-09T11:53:02.358Z,33.61
2017-07-09T11:54:13.704Z,33.31
2017-07-09T11:55:25.361Z,33.45
2017-07-09T11:56:37.993Z,33.12
2017-07-09T11:57:49.942Z,33.04
2017-07-09T11:59:02.293Z,33.15
2017-07-09T12:00:14.864Z,33.23
2017-07-09T12:01:26.872Z,33.32
2017-07-09T12:02:38.902Z,33.4
2017-07-09T12:03:51.469Z,33.51
2017-07-09T12:05:03.804Z,33.63
2017-07-09T12:06:16.324Z,33.75
2017-07-09T12:07:28.676Z,33.87
2017-07-09T12:08:40.974Z,34.1
2017-07-09T12:09:53.561Z,34.21
2017-07-09T12:11:05.566Z,34.41
2017-07-09T12:12:17.531Z,34.59
2017-07-09T12:13:29.794Z,34.79
2017-07-09T12:14:41.840Z,34.88
2017-07-09T12:15:54.154Z,35.1
2017-07-09T12:17:06.407Z,35.08
2017-07-09T12:18:19.058Z,35.15
2017-07-09T12:19:31.048Z,35.3
2017-07-09T12:20:43.033Z,35.34
2017-07-09T12:21:55.690Z,35.34
2017-07-09T12:23:07.375Z,35.34
2017-07-09T12:24:19.094Z,35.38
2017-07-09T12:25:31.767Z,35.44
2017-07-09T12:26:44.100Z,35.25
2017-07-09T12:27:56.093Z,35.32
2017-07-09T12:29:08.129Z,35.35
2017-07-09T12:30:20.155Z,35.35
2017-07-09T12:31:32.428Z,35.39
2017-07-09T12:32:44.942Z,35.47
2017-07-09T12:33:57.507Z,35.6
2017-07-09T12:35:09.827Z,35.75
2017-07-09T12:36:22.143Z,35.81
2017-07-09T12:37:34.113Z,35.71
2017-07-09T12:38:46.740Z,35.86
2017-07-09T12:39:58.683Z,35.72
2017-07-09T12:41:10.726Z,35.74
2017-07-09T12:42:23.371Z,35.82
2017-07-09T12:43:35.393Z,35.82
2017-07-09T12:44:48.001Z,35.96
2017-07-09T12:46:00.615Z,35.98
2017-07-09T12:47:12.904Z,36.08
2017-07-09T12:48:25.568Z,36.24
2017-07-09T12:49:37.903Z,36.22
2017-07-09T12:50:50.462Z,36.24
2017-07-09T12:52:02.463Z,36.31
2017-07-09T12:53:14.774Z,36.09
2017-07-09T12:54:27.370Z,36.03
2017-07-09T12:55:39.665Z,35.96
2017-07-09T12:56:52.295Z,35.74
2017-07-09T12:58:04.282Z,35.79
2017-07-09T12:59:15.966Z,35.69
2017-07-09T13:00:28.273Z,35.81
2017-07-09T13:01:40.531Z,35.84
2017-07-09T13:02:53.173Z,36
2017-07-09T13:04:05.154Z,36.05
2017-07-09T13:05:17.495Z,36.01
2017-07-09T13:06:30.140Z,36.11
2017-07-09T13:07:42.753Z,36.18
2017-07-09T13:08:55.298Z,36.22
2017-07-09T13:10:06.991Z,36.17
2017-07-09T13:11:19.272Z,36.22
2017-07-09T13:12:31.582Z,36.2
2017-07-09T13:13:43.941Z,36.09
2017-07-09T13:14:56.611Z,36.25
2017-07-09T13:16:07.996Z,36.24
2017-07-09T13:17:19.637Z,36.09
2017-07-09T13:18:32.205Z,36.05
2017-07-09T13:19:44.484Z,35.97
2017-07-09T13:20:57.079Z,35.94
2017-07-09T13:22:09.399Z,35.82
2017-07-09T13:23:21.048Z,35.71
2017-07-09T13:24:33.074Z,35.71
2017-07-09T13:25:44.801Z,35.37
2017-07-09T13:26:57.085Z,35.31
2017-07-09T13:28:09.443Z,35.22
2017-07-09T13:29:22.020Z,35.31
2017-07-09T13:30:34.049Z,35.31
2017-07-09T13:31:46.619Z,35.42
2017-07-09T13:32:59.193Z,35.52
2017-07-09T13:34:11.453Z,35.47
2017-07-09T13:35:24.063Z,35.41
2017-07-09T13:36:35.782Z,35.38
2017-07-09T13:37:48.030Z,35.32
2017-07-09T13:39:00.675Z,35.03
2017-07-09T13:40:12.350Z,35.07
2017-07-09T13:41:24.648Z,34.98
2017-07-09T13:42:36.968Z,34.89
2017-07-09T13:43:48.940Z,34.98
2017-07-09T13:45:01.635Z,35.07
2017-07-09T13:46:13.682Z,35.2
2017-07-09T13:47:26.290Z,35.04
2017-07-09T13:48:38.270Z,35.07
2017-07-09T13:49:50.266Z,35.1
2017-07-09T13:51:02.877Z,34.91
2017-07-09T13:52:14.900Z,34.96
2017-07-09T13:53:27.455Z,35.01
2017-07-09T13:54:39.760Z,34.93
2017-07-09T13:55:52.306Z,34.97
2017-07-09T13:57:04.620Z,34.97
2017-07-09T13:58:17.280Z,34.97
2017-07-09T13:59:29.212Z,34.93
2017-07-09T14:00:41.489Z,35.03
2017-07-09T14:01:53.742Z,35.01
2017-07-09T14:03:05.992Z,35
2017-07-09T14:04:18.310Z,35.18
2017-07-09T14:05:30.565Z,35.13
2017-07-09T14:06:42.226Z,35.2
2017-07-09T14:07:54.896Z,35.27
2017-07-09T14:09:07.270Z,35.15
2017-07-09T14:10:18.631Z,35.03
2017-07-09T14:11:31.193Z,35.08
2017-07-09T14:12:43.492Z,34.93
2017-07-09T14:13:55.825Z,34.81
2017-07-09T14:15:07.833Z,34.81
2017-07-09T14:16:20.147Z,34.83
2017-07-09T14:17:31.740Z,34.63
2017-07-09T14:18:44.033Z,34.47
2017-07-09T14:19:56.314Z,34.51
2017-07-09T14:21:07.702Z,34.58
2017-07-09T14:22:19.696Z,34.38
2017-07-09T14:23:31.033Z,34.46
2017-07-09T14:24:43.607Z,34.38
2017-07-09T14:25:56.236Z,34.26
2017-07-09T14:27:09.081Z,34.18
2017-07-09T14:28:21.752Z,34.21
2017-07-09T14:29:33.699Z,34.31
2017-07-09T14:30:45.704Z,34.28
2017-07-09T14:31:57.701Z,34.18
2017-07-09T14:33:10.004Z,34.09
2017-07-09T14:34:22.265Z,34.11
2017-07-09T14:35:34.539Z,33.87
2017-07-09T14:36:46.823Z,33.67
2017-07-09T14:37:59.472Z,33.65
2017-07-09T14:39:12.068Z,33.4
2017-07-09T14:40:24.053Z,33.4
2017-07-09T14:41:36.300Z,33.29
2017-07-09T14:42:49.154Z,33.26
2017-07-09T14:44:01.452Z,33.09
2017-07-09T14:45:14.070Z,33.1
2017-07-09T14:46:26.632Z,33.1
2017-07-09T14:47:38.578Z,33.04
2017-07-09T14:48:50.924Z,32.72
2017-07-09T14:50:02.847Z,32.39
2017-07-09T14:51:15.125Z,32.17
2017-07-09T14:52:27.709Z,31.93
2017-07-09T14:53:39.691Z,31.51
2017-07-09T14:54:51.939Z,31.33
2017-07-09T14:56:04.569Z,31.14
2017-07-09T14:57:16.867Z,31.04
2017-07-09T14:58:29.449Z,30.88
2017-07-09T14:59:41.088Z,30.85
2017-07-09T15:00:52.791Z,30.63
2017-07-09T15:02:05.105Z,30.59
2017-07-09T15:03:17.643Z,30.55
2017-07-09T15:04:30.279Z,30.44
2017-07-09T15:05:42.252Z,30.38
2017-07-09T15:06:54.588Z,30.16
2017-07-09T15:08:05.893Z,30.13
2017-07-09T15:09:17.862Z,30.1
2017-07-09T15:10:30.483Z,29.98
2017-07-09T15:11:42.416Z,29.76
2017-07-09T15:12:54.727Z,29.68
2017-07-09T15:14:07.371Z,29.47
2017-07-09T15:15:19.610Z,29.42
2017-07-09T15:16:31.894Z,29.34
2017-07-09T15:17:43.945Z,29.2
2017-07-09T15:18:56.200Z,28.93
2017-07-09T15:20:08.549Z,28.83
2017-07-09T15:21:20.558Z,28.71
2017-07-09T15:22:31.897Z,28.64
2017-07-09T15:23:42.974Z,28.5
2017-07-09T15:24:54.370Z,28.46
2017-07-09T15:26:06.655Z,28.28
2017-07-09T15:27:19.328Z,28.2
2017-07-09T15:28:30.984Z,28.22
2017-07-09T15:29:43.318Z,28.1
2017-07-09T15:30:55.906Z,27.98
2017-07-09T15:32:08.489Z,27.93
2017-07-09T15:33:20.449Z,27.86
2017-07-09T15:34:32.680Z,27.81